Bemidji Regional Airport
KBJI : now visible

Airfield :











YOU CAN JOIN US ON...

 
LOGIN :

Register | Disclaimer

   EN    FR    IT 

 









Legend :    VFR   Marginal VFR   IFR   Intensive IFR   Very Intensive IFR
Visi :
Ceiling :
>= 8 km
>= 3000ft
5 to 8 km
1000 to 3000 ft
1500m to 5 km
500 to 1000 ft
800 to 1500m
200 to 500 ft
< 800m
< 200 ft
Symbols :   Thunderstorms  Fog  Heavy snow  Heavy precipitations  Wind > 20 kt






- Airport Elevation : 1391 ft


KBJI - Bemidji Regional

CURRENT METAR :
  • 251915Z AUTO 27005KT 10SM SCT037 OVC060 M03/M10 A3032 RMK AO2 T10311102

EXPIRED METARs :
  • 251855Z AUTO 28007KT 10SM SCT041 OVC050 M03/M10 A3033 RMK AO2 T10341105
  • 251835Z AUTO 29005KT 10SM SCT034 SCT043 OVC050 M03/M11 A3033 RMK AO2 T10351111
  • 251815Z AUTO 32005KT 10SM SCT034 BKN043 OVC049 M03/M10 A3034 RMK AO2 T10351102
  • 251755Z AUTO 32006KT 10SM SCT035 BKN043 OVC060 M03/M11 A3035 RMK AO2 T10331107 11027 21056
  • 251735Z AUTO 31003KT 10SM SCT026 SCT039 SCT047 M03/M10 A3035 RMK AO2 T10331102
  • 251715Z AUTO 32004KT 10SM BKN026 BKN030 M04/M09 A3036 RMK AO2 T10361093
  • 251655Z AUTO 28005KT 10SM SCT024 M03/M09 A3036 RMK AO2 T10331088
  • 251635Z AUTO 30006KT 10SM CLR M04/M09 A3036 RMK AO2 T10401091

TAF KBJI
Valid from the 25 at 18:00 until the 26 at 18:00 UTC


251728Z 2518/2618 30005KT P6SM SCT025 BKN035
TEMPO 2518/2520 BKN025
FM260000 VRB04KT P6SM BKN060
KZMP FIR / North America



MET'MAP, your aeronautical weather chart ! - Copyright ORBIFLY December 2007 - Disclaimer

ORBIFLY MET'MAP TEAM :

Programming & Development : Alexandra Zaïnal
Concept & original design : Baudouin d'Aumeries
Assistance for programming : Marc-Olivier Méhu
Technical & hardware support : Manuel Goepfert

Contact : metmap@orbifly.com




SOURCES & CREDITS :

   NOAA       Earth
Advisory